createdAt,value
2016-12-31T01:01:11.112Z,1027.54
2016-12-31T01:02:11.048Z,1027.52
2016-12-31T01:03:10.985Z,1027.49
2016-12-31T01:04:10.922Z,1027.48
2016-12-31T01:05:10.859Z,1027.47
2016-12-31T01:06:10.796Z,1027.45
2016-12-31T01:07:10.732Z,1027.46
2016-12-31T01:08:10.670Z,1027.49
2016-12-31T01:09:10.606Z,1027.45
2016-12-31T01:10:10.543Z,1027.42
2016-12-31T01:11:10.479Z,1027.4
2016-12-31T01:12:10.416Z,1027.43
2016-12-31T01:13:10.355Z,1027.42
2016-12-31T01:14:10.293Z,1027.38
2016-12-31T01:15:10.228Z,1027.37
2016-12-31T01:16:10.165Z,1027.38
2016-12-31T01:17:10.103Z,1027.38
2016-12-31T01:18:10.040Z,1027.4
2016-12-31T01:19:09.986Z,1027.35
2016-12-31T01:20:09.913Z,1027.38
2016-12-31T01:21:09.850Z,1027.37
2016-12-31T01:22:09.788Z,1027.4
2016-12-31T01:23:09.723Z,1027.37
2016-12-31T01:24:09.662Z,1027.39
2016-12-31T01:25:09.598Z,1027.35
2016-12-31T01:26:09.535Z,1027.35
2016-12-31T01:27:09.472Z,1027.37
2016-12-31T01:28:09.410Z,1027.36
2016-12-31T01:29:09.348Z,1027.35
2016-12-31T01:30:09.284Z,1027.34
2016-12-31T01:31:09.221Z,1027.34
2016-12-31T01:32:09.158Z,1027.33
2016-12-31T01:33:09.094Z,1027.31
2016-12-31T01:34:09.032Z,1027.3
2016-12-31T01:35:08.969Z,1027.32
2016-12-31T01:36:08.907Z,1027.29
2016-12-31T01:37:08.842Z,1027.28
2016-12-31T01:38:08.780Z,1027.27
2016-12-31T01:39:08.717Z,1027.31
2016-12-31T01:40:08.655Z,1027.28
2016-12-31T01:41:08.591Z,1027.28
2016-12-31T01:42:08.528Z,1027.3
2016-12-31T01:43:08.464Z,1027.3
2016-12-31T01:44:08.401Z,1027.3
2016-12-31T01:45:08.339Z,1027.29
2016-12-31T01:46:08.275Z,1027.25
2016-12-31T01:47:08.213Z,1027.27
2016-12-31T01:48:08.149Z,1027.24
2016-12-31T01:49:08.087Z,1027.22
2016-12-31T01:50:08.024Z,1027.21
2016-12-31T01:51:07.962Z,1027.17
2016-12-31T01:52:07.897Z,1027.23
2016-12-31T01:53:07.836Z,1027.21
2016-12-31T01:54:07.772Z,1027.21
2016-12-31T01:55:07.707Z,1027.23
2016-12-31T01:56:07.646Z,1027.22
2016-12-31T01:57:07.582Z,1027.23
2016-12-31T01:58:07.520Z,1027.2
2016-12-31T01:59:07.457Z,1027.25
2016-12-31T02:00:07.393Z,1027.22
2016-12-31T02:01:07.333Z,1027.23
2016-12-31T02:02:07.269Z,1027.19
2016-12-31T02:03:07.205Z,1027.2
2016-12-31T02:04:07.142Z,1027.17
2016-12-31T02:05:07.079Z,1027.17
2016-12-31T02:06:07.015Z,1027.17
2016-12-31T02:07:06.952Z,1027.17
2016-12-31T02:08:06.891Z,1027.17
2016-12-31T02:09:06.826Z,1027.18
2016-12-31T02:10:06.764Z,1027.22
2016-12-31T02:11:06.701Z,1027.18
2016-12-31T02:12:06.639Z,1027.22
2016-12-31T02:13:06.574Z,1027.22
2016-12-31T02:14:06.512Z,1027.2
2016-12-31T02:15:06.450Z,1027.2
2016-12-31T02:16:06.385Z,1027.23
2016-12-31T02:17:06.324Z,1027.21
2016-12-31T02:18:06.260Z,1027.21
2016-12-31T02:19:06.197Z,1027.2
2016-12-31T02:20:06.134Z,1027.19
2016-12-31T02:21:06.070Z,1027.16
2016-12-31T02:22:06.008Z,1027.19
2016-12-31T02:23:05.945Z,1027.14
2016-12-31T02:24:05.883Z,1027.12
2016-12-31T02:25:05.819Z,1027.08
2016-12-31T02:26:05.755Z,1027.06
2016-12-31T02:27:05.693Z,1027.05
2016-12-31T02:28:05.630Z,1027.01
2016-12-31T02:29:05.566Z,1027.05
2016-12-31T02:30:05.504Z,1027.02
2016-12-31T02:31:05.442Z,1026.99
2016-12-31T02:32:05.378Z,1026.97
2016-12-31T02:33:05.315Z,1026.99
2016-12-31T02:34:05.251Z,1026.97
2016-12-31T02:35:05.189Z,1026.94
2016-12-31T02:36:05.127Z,1026.98
2016-12-31T02:37:05.065Z,1026.96
2016-12-31T02:38:05.002Z,1026.97
2016-12-31T02:39:04.938Z,1026.95
2016-12-31T02:40:04.874Z,1026.93
2016-12-31T02:41:04.813Z,1026.96
2016-12-31T02:42:04.749Z,1026.96
2016-12-31T02:43:04.685Z,1026.99
2016-12-31T02:44:04.624Z,1026.94
2016-12-31T02:45:04.561Z,1026.96
2016-12-31T02:46:04.497Z,1026.94
2016-12-31T02:47:04.434Z,1026.92
2016-12-31T02:48:04.371Z,1026.9
2016-12-31T02:49:04.309Z,1026.91
2016-12-31T02:50:04.245Z,1026.86
2016-12-31T02:51:04.189Z,1026.84
2016-12-31T02:52:04.118Z,1026.82
2016-12-31T02:53:04.055Z,1026.81
2016-12-31T02:54:03.991Z,1026.8
2016-12-31T02:55:03.929Z,1026.76
2016-12-31T02:56:03.865Z,1026.74
2016-12-31T02:57:03.802Z,1026.75
2016-12-31T02:58:03.740Z,1026.69
2016-12-31T02:59:03.676Z,1026.72
2016-12-31T03:00:03.615Z,1026.7
2016-12-31T03:01:03.550Z,1026.71
2016-12-31T03:02:03.488Z,1026.72
2016-12-31T03:03:03.426Z,1026.69
2016-12-31T03:04:03.365Z,1026.69
2016-12-31T03:05:03.300Z,1026.66
2016-12-31T03:06:03.237Z,1026.66
2016-12-31T03:07:03.178Z,1026.66
2016-12-31T03:08:03.109Z,1026.62
2016-12-31T03:09:03.047Z,1026.64
2016-12-31T03:10:02.985Z,1026.6
2016-12-31T03:11:02.922Z,1026.64
2016-12-31T03:12:02.857Z,1026.58
2016-12-31T03:13:02.794Z,1026.59
2016-12-31T03:14:02.731Z,1026.58
2016-12-31T03:15:02.670Z,1026.59
2016-12-31T03:16:02.606Z,1026.57
2016-12-31T03:17:02.542Z,1026.57
2016-12-31T03:18:02.480Z,1026.6
2016-12-31T03:19:02.417Z,1026.6
2016-12-31T03:20:02.353Z,1026.56
2016-12-31T03:21:02.291Z,1026.56
2016-12-31T03:22:02.229Z,1026.56
2016-12-31T03:23:02.168Z,1026.58
2016-12-31T03:24:02.102Z,1026.58
2016-12-31T03:25:02.040Z,1026.58
2016-12-31T03:26:01.977Z,1026.57
2016-12-31T03:27:01.913Z,1026.56
2016-12-31T03:28:01.850Z,1026.54
2016-12-31T03:29:01.788Z,1026.54
2016-12-31T03:30:01.724Z,1026.54
2016-12-31T03:31:01.661Z,1026.57
2016-12-31T03:32:01.598Z,1026.51
2016-12-31T03:33:01.534Z,1026.53
2016-12-31T03:34:01.472Z,1026.51
2016-12-31T03:35:01.409Z,1026.53
2016-12-31T03:36:01.346Z,1026.49
2016-12-31T03:37:01.283Z,1026.47
2016-12-31T03:38:01.220Z,1026.46
2016-12-31T03:39:01.157Z,1026.48
2016-12-31T03:40:01.095Z,1026.44
2016-12-31T03:41:01.031Z,1026.49
2016-12-31T03:42:00.967Z,1026.43
2016-12-31T03:43:00.906Z,1026.44
2016-12-31T03:44:00.843Z,1026.4
2016-12-31T03:45:00.779Z,1026.38
2016-12-31T03:46:00.716Z,1026.39
2016-12-31T03:47:00.654Z,1026.39
2016-12-31T03:48:00.591Z,1026.41
2016-12-31T03:49:00.527Z,1026.46
2016-12-31T03:50:00.465Z,1026.45
2016-12-31T03:51:00.402Z,1026.46
2016-12-31T03:52:00.337Z,1026.46
2016-12-31T03:53:00.274Z,1026.43
2016-12-31T03:54:00.212Z,1026.44
2016-12-31T03:55:00.149Z,1026.43
2016-12-31T03:56:00.087Z,1026.42
2016-12-31T03:57:00.023Z,1026.41
2016-12-31T03:57:59.963Z,1026.39
2016-12-31T03:58:59.898Z,1026.42
2016-12-31T03:59:59.834Z,1026.39
2016-12-31T04:00:59.775Z,1026.42
2016-12-31T04:01:59.708Z,1026.42
2016-12-31T04:02:59.646Z,1026.42
2016-12-31T04:03:59.583Z,1026.44
2016-12-31T04:04:59.521Z,1026.45
2016-12-31T04:05:59.458Z,1026.43
2016-12-31T04:06:59.394Z,1026.45
2016-12-31T04:07:59.331Z,1026.41
2016-12-31T04:08:59.269Z,1026.42
2016-12-31T04:09:59.205Z,1026.44
2016-12-31T04:10:59.143Z,1026.43
2016-12-31T04:11:59.080Z,1026.39
2016-12-31T04:12:59.017Z,1026.42
2016-12-31T04:13:58.954Z,1026.4
2016-12-31T04:14:58.890Z,1026.41
2016-12-31T04:15:58.829Z,1026.42
2016-12-31T04:16:58.767Z,1026.4
2016-12-31T04:17:58.702Z,1026.4
2016-12-31T04:18:58.639Z,1026.39
2016-12-31T04:19:58.578Z,1026.44
2016-12-31T04:20:58.513Z,1026.4
2016-12-31T04:21:58.451Z,1026.42
2016-12-31T04:22:58.388Z,1026.45
2016-12-31T04:23:58.326Z,1026.48
2016-12-31T04:24:58.262Z,1026.44
2016-12-31T04:25:58.199Z,1026.47
2016-12-31T04:26:58.137Z,1026.48
2016-12-31T04:27:58.074Z,1026.49
2016-12-31T04:28:58.010Z,1026.46
2016-12-31T04:29:57.948Z,1026.47
2016-12-31T04:30:57.884Z,1026.5
2016-12-31T04:31:57.819Z,1026.45
2016-12-31T04:32:57.758Z,1026.47
2016-12-31T04:33:57.694Z,1026.48
2016-12-31T04:34:57.631Z,1026.43
2016-12-31T04:35:57.567Z,1026.46
2016-12-31T04:36:57.505Z,1026.39
2016-12-31T04:37:57.443Z,1026.38
2016-12-31T04:38:57.378Z,1026.33
2016-12-31T04:39:57.316Z,1026.33
2016-12-31T04:40:57.251Z,1026.28
2016-12-31T04:41:57.188Z,1026.29
2016-12-31T04:42:57.126Z,1026.26
2016-12-31T04:43:57.063Z,1026.25
2016-12-31T04:44:56.999Z,1026.22
2016-12-31T04:45:56.936Z,1026.23
2016-12-31T04:46:56.873Z,1026.24
2016-12-31T04:47:56.809Z,1026.21
2016-12-31T04:48:56.748Z,1026.25
2016-12-31T04:49:56.685Z,1026.19
2016-12-31T04:50:56.621Z,1026.17
2016-12-31T04:51:56.558Z,1026.14
2016-12-31T04:52:56.495Z,1026.19
2016-12-31T04:53:56.432Z,1026.16
2016-12-31T04:54:56.368Z,1026.19
2016-12-31T04:55:56.306Z,1026.14
2016-12-31T04:56:56.245Z,1026.14
2016-12-31T04:57:56.178Z,1026.19
2016-12-31T04:58:56.116Z,1026.18
2016-12-31T04:59:56.053Z,1026.15
2016-12-31T05:00:55.992Z,1026.17
2016-12-31T05:01:55.928Z,1026.14
2016-12-31T05:02:55.864Z,1026.12
2016-12-31T05:03:55.801Z,1026.12
2016-12-31T05:04:55.739Z,1026.11
2016-12-31T05:05:55.675Z,1026.12
2016-12-31T05:06:55.613Z,1026.14
2016-12-31T05:07:55.550Z,1026.14
2016-12-31T05:08:55.487Z,1026.1
2016-12-31T05:09:55.424Z,1026.14
2016-12-31T05:10:55.361Z,1026.1
2016-12-31T05:11:55.299Z,1026.07
2016-12-31T05:12:55.235Z,1026.08
2016-12-31T05:13:55.172Z,1026.06
2016-12-31T05:14:55.109Z,1026.08
2016-12-31T05:15:55.046Z,1026.05
2016-12-31T05:16:54.983Z,1026.05
2016-12-31T05:17:54.920Z,1026.01
2016-12-31T05:18:54.857Z,1026.03
2016-12-31T05:19:54.792Z,1026.03
2016-12-31T05:20:54.731Z,1026.01
2016-12-31T05:21:54.667Z,1025.98
2016-12-31T05:22:54.605Z,1026
2016-12-31T05:23:54.541Z,1025.97
2016-12-31T05:24:54.478Z,1026.01
2016-12-31T05:25:54.416Z,1025.95
2016-12-31T05:26:54.350Z,1025.97
2016-12-31T05:27:54.290Z,1025.93
2016-12-31T05:28:54.229Z,1025.94
2016-12-31T05:29:54.164Z,1025.9
2016-12-31T05:30:54.100Z,1025.93
2016-12-31T05:31:54.037Z,1025.89
2016-12-31T05:32:53.973Z,1025.87
2016-12-31T05:33:53.914Z,1025.86
2016-12-31T05:34:53.848Z,1025.84
2016-12-31T05:35:53.784Z,1025.81
2016-12-31T05:36:53.722Z,1025.82
2016-12-31T05:37:53.658Z,1025.83
2016-12-31T05:38:53.595Z,1025.83
2016-12-31T05:39:53.532Z,1025.8
2016-12-31T05:40:53.470Z,1025.83
2016-12-31T05:41:53.404Z,1025.75
2016-12-31T05:42:53.343Z,1025.82
2016-12-31T05:43:53.280Z,1025.76
2016-12-31T05:44:53.217Z,1025.79
2016-12-31T05:45:53.153Z,1025.79
2016-12-31T05:46:53.090Z,1025.79
2016-12-31T05:47:53.029Z,1025.81
2016-12-31T05:48:52.963Z,1025.8
2016-12-31T05:49:52.902Z,1025.79
2016-12-31T05:50:52.839Z,1025.78
2016-12-31T05:51:52.776Z,1025.78
2016-12-31T05:52:52.711Z,1025.81
2016-12-31T05:53:52.649Z,1025.84
2016-12-31T05:54:52.586Z,1025.81
2016-12-31T05:55:52.522Z,1025.83
2016-12-31T05:56:52.459Z,1025.82
2016-12-31T05:57:52.396Z,1025.82
2016-12-31T05:58:52.333Z,1025.8
2016-12-31T05:59:52.268Z,1025.79
2016-12-31T06:00:52.207Z,1025.82
2016-12-31T06:01:52.144Z,1025.79
2016-12-31T06:02:52.080Z,1025.83
2016-12-31T06:03:52.016Z,1025.79
2016-12-31T06:04:51.953Z,1025.81
2016-12-31T06:05:51.891Z,1025.81
2016-12-31T06:06:51.826Z,1025.77
2016-12-31T06:07:51.765Z,1025.8
2016-12-31T06:08:51.701Z,1025.81
2016-12-31T06:09:51.638Z,1025.77
2016-12-31T06:10:51.575Z,1025.78
2016-12-31T06:11:51.511Z,1025.73
2016-12-31T06:12:51.448Z,1025.75
2016-12-31T06:13:51.387Z,1025.72
2016-12-31T06:14:51.322Z,1025.74
2016-12-31T06:15:51.259Z,1025.74
2016-12-31T06:16:51.197Z,1025.69
2016-12-31T06:17:51.132Z,1025.72
2016-12-31T06:18:51.069Z,1025.72
2016-12-31T06:19:51.006Z,1025.72
2016-12-31T06:20:50.944Z,1025.75
2016-12-31T06:21:50.883Z,1025.73
2016-12-31T06:22:50.818Z,1025.76
2016-12-31T06:23:50.755Z,1025.8
2016-12-31T06:24:50.693Z,1025.8
2016-12-31T06:25:50.627Z,1025.77
2016-12-31T06:26:50.568Z,1025.79
2016-12-31T06:27:50.504Z,1025.81
2016-12-31T06:28:50.440Z,1025.79
2016-12-31T06:29:50.377Z,1025.8
2016-12-31T06:30:50.313Z,1025.77
2016-12-31T06:31:50.251Z,1025.73
2016-12-31T06:32:50.187Z,1025.74
2016-12-31T06:33:50.125Z,1025.73
2016-12-31T06:34:50.061Z,1025.72
2016-12-31T06:35:50.003Z,1025.65
2016-12-31T06:36:49.936Z,1025.65
2016-12-31T06:37:49.872Z,1025.63
2016-12-31T06:38:49.810Z,1025.6
2016-12-31T06:39:49.746Z,1025.62
2016-12-31T06:40:49.683Z,1025.56
2016-12-31T06:41:49.620Z,1025.59
2016-12-31T06:42:49.558Z,1025.52
2016-12-31T06:43:49.494Z,1025.55
2016-12-31T06:44:49.431Z,1025.5
2016-12-31T06:45:49.367Z,1025.57
2016-12-31T06:46:49.306Z,1025.5
2016-12-31T06:47:49.242Z,1025.51
2016-12-31T06:48:49.178Z,1025.49
2016-12-31T06:49:49.117Z,1025.5
2016-12-31T06:50:49.053Z,1025.45
2016-12-31T06:51:48.990Z,1025.45
2016-12-31T06:52:48.928Z,1025.48
2016-12-31T06:53:48.865Z,1025.43
2016-12-31T06:54:48.801Z,1025.44
2016-12-31T06:55:48.738Z,1025.43
2016-12-31T06:56:48.676Z,1025.42
2016-12-31T06:57:48.611Z,1025.43
2016-12-31T06:58:48.548Z,1025.41
2016-12-31T06:59:48.485Z,1025.34
2016-12-31T07:00:48.423Z,1025.38
2016-12-31T07:01:48.359Z,1025.4
2016-12-31T07:02:48.298Z,1025.43
2016-12-31T07:03:48.234Z,1025.45
2016-12-31T07:04:48.171Z,1025.44
2016-12-31T07:05:48.108Z,1025.41
2016-12-31T07:06:48.046Z,1025.42
2016-12-31T07:07:47.981Z,1025.4
2016-12-31T07:08:47.921Z,1025.42
2016-12-31T07:09:47.856Z,1025.4
2016-12-31T07:10:47.793Z,1025.38
2016-12-31T07:11:47.731Z,1025.37
2016-12-31T07:12:47.667Z,1025.4
2016-12-31T07:13:47.605Z,1025.38
2016-12-31T07:14:47.541Z,1025.32
2016-12-31T07:15:47.479Z,1025.35
2016-12-31T07:16:47.414Z,1025.33
2016-12-31T07:17:47.351Z,1025.3
2016-12-31T07:18:47.290Z,1025.31
2016-12-31T07:19:47.227Z,1025.31
2016-12-31T07:20:47.164Z,1025.31
2016-12-31T07:21:47.100Z,1025.33
2016-12-31T07:22:47.040Z,1025.32
2016-12-31T07:23:46.975Z,1025.33
2016-12-31T07:24:46.912Z,1025.34
2016-12-31T07:25:46.850Z,1025.33
2016-12-31T07:26:46.787Z,1025.28
2016-12-31T07:27:46.724Z,1025.39
2016-12-31T07:28:46.660Z,1025.35
2016-12-31T07:29:46.598Z,1025.39
2016-12-31T07:30:46.535Z,1025.34
2016-12-31T07:31:46.473Z,1025.35
2016-12-31T07:32:46.410Z,1025.29
2016-12-31T07:33:46.348Z,1025.32
2016-12-31T07:34:46.283Z,1025.31
2016-12-31T07:35:46.222Z,1025.24
2016-12-31T07:36:46.160Z,1025.32
2016-12-31T07:37:46.096Z,1025.27
2016-12-31T07:38:46.032Z,1025.3
2016-12-31T07:39:45.970Z,1025.31
2016-12-31T07:40:45.908Z,1025.31
2016-12-31T07:41:45.844Z,1025.34
2016-12-31T07:42:45.780Z,1025.4
2016-12-31T07:43:45.719Z,1025.38
2016-12-31T07:44:45.656Z,1025.4
2016-12-31T07:45:45.591Z,1025.4
2016-12-31T07:46:45.530Z,1025.4
2016-12-31T07:47:45.467Z,1025.44
2016-12-31T07:48:45.405Z,1025.41
2016-12-31T07:49:45.341Z,1025.46
2016-12-31T07:50:45.278Z,1025.43
2016-12-31T07:51:45.215Z,1025.45
2016-12-31T07:52:45.152Z,1025.47
2016-12-31T07:53:45.090Z,1025.45
2016-12-31T07:54:45.026Z,1025.42
2016-12-31T07:55:44.966Z,1025.48
2016-12-31T07:56:44.901Z,1025.45
2016-12-31T07:57:44.838Z,1025.47
2016-12-31T07:58:44.776Z,1025.45
2016-12-31T07:59:44.713Z,1025.45
2016-12-31T08:00:44.649Z,1025.44
2016-12-31T08:01:44.587Z,1025.44
2016-12-31T08:02:44.524Z,1025.41
2016-12-31T08:03:44.460Z,1025.47
2016-12-31T08:04:44.398Z,1025.42
2016-12-31T08:05:44.336Z,1025.39
2016-12-31T08:06:44.272Z,1025.36
2016-12-31T08:07:44.209Z,1025.38
2016-12-31T08:08:44.145Z,1025.42
2016-12-31T08:09:44.084Z,1025.39
2016-12-31T08:10:44.021Z,1025.39
2016-12-31T08:11:43.959Z,1025.42
2016-12-31T08:12:43.895Z,1025.45
2016-12-31T08:13:43.833Z,1025.44
2016-12-31T08:14:43.769Z,1025.42
2016-12-31T08:15:43.706Z,1025.43
2016-12-31T08:16:43.644Z,1025.45
2016-12-31T08:17:43.581Z,1025.42
2016-12-31T08:18:43.516Z,1025.39
2016-12-31T08:19:43.455Z,1025.43
2016-12-31T08:20:43.393Z,1025.43
2016-12-31T08:21:43.328Z,1025.41
2016-12-31T08:22:43.265Z,1025.45
2016-12-31T08:23:43.204Z,1025.46
2016-12-31T08:24:43.142Z,1025.47
2016-12-31T08:25:43.075Z,1025.47
2016-12-31T08:26:43.014Z,1025.48
2016-12-31T08:27:42.952Z,1025.51
2016-12-31T08:28:42.889Z,1025.46
2016-12-31T08:29:42.825Z,1025.48
2016-12-31T08:30:42.783Z,1025.48
2016-12-31T08:31:42.700Z,1025.47
2016-12-31T08:32:42.637Z,1025.46
2016-12-31T08:33:42.574Z,1025.49
2016-12-31T08:34:42.511Z,1025.45
2016-12-31T08:35:42.447Z,1025.48
2016-12-31T08:36:42.384Z,1025.46
2016-12-31T08:37:42.323Z,1025.47
2016-12-31T08:38:42.260Z,1025.46
2016-12-31T08:39:42.197Z,1025.42
2016-12-31T08:40:42.134Z,1025.47
2016-12-31T08:41:42.069Z,1025.48
2016-12-31T08:42:42.007Z,1025.51
2016-12-31T08:43:41.946Z,1025.49
2016-12-31T08:44:41.880Z,1025.47
2016-12-31T08:45:41.818Z,1025.47
2016-12-31T08:46:41.757Z,1025.5
2016-12-31T08:47:41.693Z,1025.5
2016-12-31T08:48:41.630Z,1025.49
2016-12-31T08:49:41.567Z,1025.45
2016-12-31T08:50:41.505Z,1025.49
2016-12-31T08:51:41.442Z,1025.43
2016-12-31T08:52:41.378Z,1025.38
2016-12-31T08:53:41.315Z,1025.37
2016-12-31T08:54:41.253Z,1025.34
2016-12-31T08:55:41.191Z,1025.36
2016-12-31T08:56:41.126Z,1025.38
2016-12-31T08:57:41.064Z,1025.37
2016-12-31T08:58:41.000Z,1025.32
2016-12-31T08:59:40.938Z,1025.34
2016-12-31T09:00:40.876Z,1025.33
2016-12-31T09:01:40.813Z,1025.35
2016-12-31T09:02:40.749Z,1025.36
2016-12-31T09:03:40.687Z,1025.33
2016-12-31T09:04:40.624Z,1025.35
2016-12-31T09:05:40.560Z,1025.34
2016-12-31T09:06:40.497Z,1025.29
2016-12-31T09:07:40.435Z,1025.3
2016-12-31T09:08:40.373Z,1025.34
2016-12-31T09:09:40.308Z,1025.31
2016-12-31T09:10:40.245Z,1025.31
2016-12-31T09:11:40.182Z,1025.28
2016-12-31T09:12:40.120Z,1025.29
2016-12-31T09:13:40.056Z,1025.29
2016-12-31T09:14:39.994Z,1025.25
2016-12-31T09:15:39.931Z,1025.29
2016-12-31T09:16:39.865Z,1025.3
2016-12-31T09:17:39.803Z,1025.29
2016-12-31T09:18:39.743Z,1025.3
2016-12-31T09:19:39.679Z,1025.29
2016-12-31T09:20:39.615Z,1025.32
2016-12-31T09:21:39.551Z,1025.28
2016-12-31T09:22:39.492Z,1025.27
2016-12-31T09:23:39.427Z,1025.26
2016-12-31T09:24:39.362Z,1025.23
2016-12-31T09:25:39.301Z,1025.26
2016-12-31T09:26:39.237Z,1025.24
2016-12-31T09:27:39.174Z,1025.25
2016-12-31T09:28:39.112Z,1025.23
2016-12-31T09:29:39.048Z,1025.21
2016-12-31T09:30:38.985Z,1025.2
2016-12-31T09:31:38.921Z,1025.22
2016-12-31T09:32:38.859Z,1025.24
2016-12-31T09:33:38.795Z,1025.22
2016-12-31T09:34:38.733Z,1025.24
2016-12-31T09:35:38.670Z,1025.2
2016-12-31T09:36:38.608Z,1025.25
2016-12-31T09:37:38.545Z,1025.21
2016-12-31T09:38:38.480Z,1025.2
2016-12-31T09:39:38.416Z,1025.14
2016-12-31T09:40:38.355Z,1025.18
2016-12-31T09:41:38.291Z,1025.19
2016-12-31T09:42:38.228Z,1025.12
2016-12-31T09:43:38.165Z,1025.11
2016-12-31T09:44:38.102Z,1025.11
2016-12-31T09:45:38.040Z,1025.05
2016-12-31T09:46:37.982Z,1025
2016-12-31T09:47:37.912Z,1025.03
2016-12-31T09:48:37.849Z,1025.01
2016-12-31T09:49:37.785Z,1025.03
2016-12-31T09:50:37.722Z,1025.05
2016-12-31T09:51:37.660Z,1025.05
2016-12-31T09:52:37.596Z,1025.02
2016-12-31T09:53:37.534Z,1025.09
2016-12-31T09:54:37.470Z,1025.03
2016-12-31T09:55:37.408Z,1025.06
2016-12-31T09:56:37.343Z,1025.03
2016-12-31T09:57:37.280Z,1025.02
2016-12-31T09:58:37.217Z,1025.05
2016-12-31T09:59:37.155Z,1025
2016-12-31T10:00:37.092Z,1024.97
2016-12-31T10:01:37.028Z,1024.96
2016-12-31T10:02:36.966Z,1024.94
2016-12-31T10:03:36.903Z,1024.93
2016-12-31T10:04:36.840Z,1024.89
2016-12-31T10:05:36.776Z,1024.88
2016-12-31T10:06:36.712Z,1024.88
2016-12-31T10:07:36.650Z,1024.85
2016-12-31T10:08:36.586Z,1024.85
2016-12-31T10:09:36.523Z,1024.8
2016-12-31T10:10:36.461Z,1024.82
2016-12-31T10:11:36.397Z,1024.84
2016-12-31T10:12:36.334Z,1024.81
2016-12-31T10:13:36.271Z,1024.79
2016-12-31T10:14:36.208Z,1024.78
2016-12-31T10:15:36.146Z,1024.77
2016-12-31T10:16:36.081Z,1024.78
2016-12-31T10:17:36.019Z,1024.76
2016-12-31T10:18:35.956Z,1024.74
2016-12-31T10:19:35.894Z,1024.71
2016-12-31T10:20:35.829Z,1024.7
2016-12-31T10:21:35.766Z,1024.69
2016-12-31T10:22:35.701Z,1024.67
2016-12-31T10:23:35.639Z,1024.7
2016-12-31T10:24:35.577Z,1024.7
2016-12-31T10:25:35.513Z,1024.71
2016-12-31T10:26:35.450Z,1024.72
2016-12-31T10:27:35.387Z,1024.66
2016-12-31T10:28:35.325Z,1024.68
2016-12-31T10:29:35.263Z,1024.66
2016-12-31T10:30:35.200Z,1024.67
2016-12-31T10:31:35.138Z,1024.7
2016-12-31T10:32:35.074Z,1024.68
2016-12-31T10:33:35.012Z,1024.65
2016-12-31T10:34:34.947Z,1024.63
2016-12-31T10:35:34.884Z,1024.64
2016-12-31T10:36:34.821Z,1024.61
2016-12-31T10:37:34.758Z,1024.63
2016-12-31T10:38:34.695Z,1024.58
2016-12-31T10:39:34.632Z,1024.53
2016-12-31T10:40:34.569Z,1024.53
2016-12-31T10:41:34.506Z,1024.55
2016-12-31T10:42:34.443Z,1024.59
2016-12-31T10:43:34.379Z,1024.49
2016-12-31T10:44:34.315Z,1024.47
2016-12-31T10:45:34.254Z,1024.48
2016-12-31T10:46:34.191Z,1024.48
2016-12-31T10:47:34.129Z,1024.46
2016-12-31T10:48:34.065Z,1024.48
2016-12-31T10:49:34.002Z,1024.47
2016-12-31T10:50:33.939Z,1024.48
2016-12-31T10:51:33.874Z,1024.41
2016-12-31T10:52:33.813Z,1024.42
2016-12-31T10:53:33.750Z,1024.38
2016-12-31T10:54:33.688Z,1024.39
2016-12-31T10:55:33.622Z,1024.42
2016-12-31T10:56:33.559Z,1024.38
2016-12-31T10:57:33.496Z,1024.41
2016-12-31T10:58:33.435Z,1024.38
2016-12-31T10:59:33.370Z,1024.43
2016-12-31T11:00:33.307Z,1024.37
2016-12-31T11:01:33.245Z,1024.38
2016-12-31T11:02:33.181Z,1024.4
2016-12-31T11:03:33.119Z,1024.41
2016-12-31T11:04:33.055Z,1024.41
2016-12-31T11:05:32.993Z,1024.34
2016-12-31T11:06:32.930Z,1024.36
2016-12-31T11:07:32.867Z,1024.32
2016-12-31T11:08:32.804Z,1024.31
2016-12-31T11:09:32.741Z,1024.3
2016-12-31T11:10:32.676Z,1024.31
2016-12-31T11:11:32.614Z,1024.27
2016-12-31T11:12:32.551Z,1024.32
2016-12-31T11:13:32.487Z,1024.29
2016-12-31T11:14:32.425Z,1024.26
2016-12-31T11:15:32.361Z,1024.27
2016-12-31T11:16:32.299Z,1024.26
2016-12-31T11:17:32.236Z,1024.26
2016-12-31T11:18:32.174Z,1024.24
2016-12-31T11:19:32.109Z,1024.2
2016-12-31T11:20:32.048Z,1024.23
2016-12-31T11:21:31.982Z,1024.15
2016-12-31T11:22:31.919Z,1024.13
2016-12-31T11:23:31.857Z,1024.12
2016-12-31T11:24:31.794Z,1024.18
2016-12-31T11:25:31.731Z,1024.1
2016-12-31T11:26:31.668Z,1024.09
2016-12-31T11:27:31.604Z,1024.11
2016-12-31T11:28:31.543Z,1024.06
2016-12-31T11:29:31.479Z,1024.1
2016-12-31T11:30:31.415Z,1024.05
2016-12-31T11:31:31.354Z,1024.06
2016-12-31T11:32:31.288Z,1024.06
2016-12-31T11:33:31.227Z,1024.06
2016-12-31T11:34:31.163Z,1024.08
2016-12-31T11:35:31.099Z,1024.05
2016-12-31T11:36:31.038Z,1024.01
2016-12-31T11:37:30.974Z,1023.99
2016-12-31T11:38:30.912Z,1024
2016-12-31T11:39:30.849Z,1023.96
2016-12-31T11:40:30.788Z,1023.94
2016-12-31T11:41:30.722Z,1023.89
2016-12-31T11:42:30.659Z,1023.86
2016-12-31T11:43:30.595Z,1023.82
2016-12-31T11:44:30.534Z,1023.8
2016-12-31T11:45:30.469Z,1023.78
2016-12-31T11:46:30.407Z,1023.77
2016-12-31T11:47:30.345Z,1023.8
2016-12-31T11:48:30.281Z,1023.73
2016-12-31T11:49:30.218Z,1023.77
2016-12-31T11:50:30.154Z,1023.71
2016-12-31T11:51:30.092Z,1023.67
2016-12-31T11:52:30.029Z,1023.71
2016-12-31T11:53:29.966Z,1023.71
2016-12-31T11:54:29.901Z,1023.68
2016-12-31T11:55:29.838Z,1023.69
2016-12-31T11:56:29.777Z,1023.61
2016-12-31T11:57:29.713Z,1023.68
2016-12-31T11:58:29.652Z,1023.64
2016-12-31T11:59:29.587Z,1023.71
2016-12-31T12:00:29.525Z,1023.72
2016-12-31T12:01:29.459Z,1023.69
2016-12-31T12:02:29.397Z,1023.66
2016-12-31T12:03:29.335Z,1023.66
2016-12-31T12:04:29.272Z,1023.64
2016-12-31T12:05:29.209Z,1023.67
2016-12-31T12:06:29.146Z,1023.64
2016-12-31T12:07:29.098Z,1023.63
2016-12-31T12:08:29.020Z,1023.62
2016-12-31T12:09:28.958Z,1023.56
2016-12-31T12:10:28.896Z,1023.52
2016-12-31T12:11:28.831Z,1023.47
2016-12-31T12:12:28.768Z,1023.52
2016-12-31T12:13:28.705Z,1023.5
2016-12-31T12:14:28.643Z,1023.5
2016-12-31T12:15:28.578Z,1023.54
2016-12-31T12:16:28.516Z,1023.52
2016-12-31T12:17:28.452Z,1023.5
2016-12-31T12:18:28.389Z,1023.52
2016-12-31T12:19:28.326Z,1023.46
2016-12-31T12:20:28.263Z,1023.48
2016-12-31T12:21:28.204Z,1023.45
2016-12-31T12:22:28.139Z,1023.39
2016-12-31T12:23:28.075Z,1023.37
2016-12-31T12:24:28.012Z,1023.34
2016-12-31T12:25:27.948Z,1023.33
2016-12-31T12:26:27.885Z,1023.3
2016-12-31T12:27:27.823Z,1023.25
2016-12-31T12:28:27.760Z,1023.26
2016-12-31T12:29:27.697Z,1023.22
2016-12-31T12:30:27.634Z,1023.23
2016-12-31T12:31:27.569Z,1023.29
2016-12-31T12:32:27.508Z,1023.27
2016-12-31T12:33:27.444Z,1023.19
2016-12-31T12:34:27.380Z,1023.16
2016-12-31T12:35:27.318Z,1023.16
2016-12-31T12:36:27.256Z,1023.2
2016-12-31T12:37:27.192Z,1023.18
2016-12-31T12:38:27.128Z,1023.21
2016-12-31T12:39:27.066Z,1023.27
2016-12-31T12:40:27.004Z,1023.22
2016-12-31T12:41:26.939Z,1023.28
2016-12-31T12:42:26.877Z,1023.25
2016-12-31T12:43:26.815Z,1023.21
2016-12-31T12:44:26.752Z,1023.26
2016-12-31T12:45:26.689Z,1023.23
2016-12-31T12:46:26.624Z,1023.24
2016-12-31T12:47:26.563Z,1023.18
2016-12-31T12:48:26.497Z,1023.23
2016-12-31T12:49:26.437Z,1023.2
2016-12-31T12:50:26.374Z,1023.21
2016-12-31T12:51:26.309Z,1023.19
2016-12-31T12:52:26.247Z,1023.18
2016-12-31T12:53:26.184Z,1023.15
2016-12-31T12:54:26.119Z,1023.12
2016-12-31T12:55:26.058Z,1023.14
2016-12-31T12:56:25.995Z,1023.13
2016-12-31T12:57:25.931Z,1023.11
2016-12-31T12:58:25.869Z,1023.12
2016-12-31T12:59:25.805Z,1023.06
2016-12-31T13:00:25.741Z,1023.06
2016-12-31T13:01:25.680Z,1023.09
2016-12-31T13:02:25.617Z,1023.04
2016-12-31T13:03:25.554Z,1023.02
2016-12-31T13:04:25.489Z,1023.04
2016-12-31T13:05:25.429Z,1023.02
2016-12-31T13:06:25.364Z,1022.95
2016-12-31T13:07:25.302Z,1022.99
2016-12-31T13:08:25.240Z,1023.01